createdAt,value
2022-12-23T00:01:09.523Z,98056.72
2022-12-23T00:03:39.559Z,98066.22
2022-12-23T00:06:11.168Z,98055.16
2022-12-23T00:08:40.634Z,98057.44
2022-12-23T00:11:13.240Z,98032.81
2022-12-23T00:14:20.412Z,98080.91
2022-12-23T00:16:52.721Z,98065.78
2022-12-23T00:19:21.084Z,98069.09
2022-12-23T00:21:49.978Z,98053.03
2022-12-23T00:24:19.660Z,98083.50
2022-12-23T00:26:49.773Z,98077.91
2022-12-23T00:29:18.550Z,98079.50
2022-12-23T00:31:49.550Z,98078.34
2022-12-23T00:34:19.757Z,98027.44
2022-12-23T00:36:47.743Z,98029.50
2022-12-23T00:39:32.824Z,98052.13
2022-12-23T00:42:19.426Z,98062.59
2022-12-23T00:44:47.362Z,98045.38
2022-12-23T00:47:36.209Z,98063.09
2022-12-23T00:50:03.174Z,98057.38
2022-12-23T00:52:31.189Z,98004.84
2022-12-23T00:54:59.190Z,98061.63
2022-12-23T00:57:28.572Z,98065.38
2022-12-23T00:59:56.556Z,98070.84
2022-12-23T01:02:41.741Z,98013.47
2022-12-23T01:05:37.621Z,98072.91
2022-12-23T01:08:05.941Z,98084.69
2022-12-23T01:10:35.705Z,98074.03
2022-12-23T01:13:05.117Z,98061.41
2022-12-23T01:15:35.074Z,98062.66
2022-12-23T01:18:03.081Z,98054.84
2022-12-23T01:20:31.069Z,98086.22
2022-12-23T01:22:59.036Z,98114.78
2022-12-23T01:25:27.105Z,98098.41
2022-12-23T01:27:55.079Z,98101.75
2022-12-23T01:30:24.866Z,98113.56
2022-12-23T01:32:52.861Z,98095.97
2022-12-23T01:35:20.919Z,98106.84
2022-12-23T01:37:48.948Z,98088.63
2022-12-23T01:40:16.969Z,98122.78
2022-12-23T01:42:43.940Z,98073.06
2022-12-23T01:45:18.071Z,98119.81
2022-12-23T01:47:51.635Z,98080.78
2022-12-23T01:50:23.010Z,98121.63
2022-12-23T01:53:06.891Z,98061.75
2022-12-23T01:55:39.038Z,98128.41
2022-12-23T01:58:11.841Z,98120.00
2022-12-23T02:00:58.922Z,98134.66
2022-12-23T02:03:44.082Z,98124.75
2022-12-23T02:06:33.885Z,98119.72
2022-12-23T02:09:20.285Z,98133.44
2022-12-23T02:12:21.684Z,98147.53
2022-12-23T02:15:30.866Z,98126.00
2022-12-23T02:18:23.077Z,98150.63
2022-12-23T02:21:08.742Z,98147.28
2022-12-23T02:24:19.130Z,98133.44
2022-12-23T02:27:04.123Z,98157.78
2022-12-23T02:29:52.058Z,98154.66
2022-12-23T02:32:31.008Z,98151.34
2022-12-23T02:35:09.932Z,98123.34
2022-12-23T02:37:43.366Z,98151.56
2022-12-23T02:40:16.164Z,98155.06
2022-12-23T02:42:49.259Z,98160.69
2022-12-23T02:45:23.111Z,98149.88
2022-12-23T02:47:54.706Z,98160.94
2022-12-23T02:50:29.539Z,98144.56
2022-12-23T02:53:01.132Z,98147.47
2022-12-23T02:55:33.485Z,98161.09
2022-12-23T02:58:05.412Z,98161.31
2022-12-23T03:00:34.299Z,98166.13
2022-12-23T03:03:05.013Z,98168.25
2022-12-23T03:05:37.876Z,98163.84
2022-12-23T03:08:09.100Z,98176.50
2022-12-23T03:10:46.211Z,98142.03
2022-12-23T03:13:24.340Z,98137.31
2022-12-23T03:16:01.507Z,98143.22
2022-12-23T03:18:41.069Z,98157.56
2022-12-23T03:21:14.049Z,98167.53
2022-12-23T03:23:50.482Z,98170.88
2022-12-23T03:26:28.787Z,98143.28
2022-12-23T03:29:01.723Z,98129.75
2022-12-23T03:31:32.723Z,98152.22
2022-12-23T03:34:06.759Z,98151.09
2022-12-23T03:36:39.508Z,98091.09
2022-12-23T03:39:11.938Z,98153.88
2022-12-23T03:41:45.760Z,98166.13
2022-12-23T03:44:17.018Z,98164.84
2022-12-23T03:46:50.454Z,98107.38
2022-12-23T03:49:25.429Z,98142.34
2022-12-23T03:51:58.765Z,98157.63
2022-12-23T03:54:32.855Z,98164.50
2022-12-23T03:57:04.132Z,98170.38
2022-12-23T03:59:34.801Z,98119.84
2022-12-23T04:02:08.768Z,98163.22
2022-12-23T04:04:52.081Z,98148.75
2022-12-23T04:07:24.819Z,98151.53
2022-12-23T04:09:54.506Z,98158.44
2022-12-23T04:12:23.867Z,98147.81
2022-12-23T04:14:52.391Z,98163.84
2022-12-23T04:17:21.071Z,98169.19
2022-12-23T04:19:50.911Z,98155.59
2022-12-23T04:22:18.865Z,98167.66
2022-12-23T04:24:46.852Z,98146.22
2022-12-23T04:27:16.373Z,98175.22
2022-12-23T04:29:44.675Z,98168.88
2022-12-23T04:32:12.743Z,98172.25
2022-12-23T04:34:40.739Z,98186.72
2022-12-23T04:37:11.243Z,98182.63
2022-12-23T04:39:39.225Z,98181.69
2022-12-23T04:42:07.456Z,98179.16
2022-12-23T04:44:35.368Z,98178.00
2022-12-23T04:47:06.028Z,98164.59
2022-12-23T04:49:34.017Z,98159.09
2022-12-23T04:52:01.995Z,98169.88
2022-12-23T04:54:31.292Z,98175.66
2022-12-23T04:57:00.024Z,98168.66
2022-12-23T04:59:28.046Z,98169.78
2022-12-23T05:01:56.172Z,98161.25
2022-12-23T05:04:24.320Z,98157.50
2022-12-23T05:06:52.349Z,98159.72
2022-12-23T05:09:20.822Z,98108.84
2022-12-23T05:11:50.173Z,98145.09
2022-12-23T05:14:18.237Z,98164.41
2022-12-23T05:16:46.315Z,98172.66
2022-12-23T05:19:14.420Z,98169.56
2022-12-23T05:21:42.372Z,98154.06
2022-12-23T05:24:10.640Z,98171.34
2022-12-23T05:26:38.711Z,98180.84
2022-12-23T05:29:08.033Z,98137.38
2022-12-23T05:31:35.993Z,98173.78
2022-12-23T05:34:06.613Z,98153.75
2022-12-23T05:36:35.169Z,98170.72
2022-12-23T05:39:03.064Z,98163.84
2022-12-23T05:41:31.012Z,98176.59
2022-12-23T05:43:58.911Z,98168.50
2022-12-23T05:46:28.318Z,98179.78
2022-12-23T05:48:56.305Z,98188.34
2022-12-23T05:51:24.265Z,98183.34
2022-12-23T05:53:52.184Z,98173.63
2022-12-23T05:56:20.143Z,98154.91
2022-12-23T05:58:48.083Z,98157.00
2022-12-23T06:01:16.157Z,98127.06
2022-12-23T06:04:05.371Z,98147.22
2022-12-23T06:06:33.546Z,98171.53
2022-12-23T06:09:01.520Z,98092.97
2022-12-23T06:11:29.937Z,98168.59
2022-12-23T06:13:58.012Z,98093.13
2022-12-23T06:16:26.061Z,98157.09
2022-12-23T06:18:57.380Z,98085.56
2022-12-23T06:21:26.754Z,98118.63
2022-12-23T06:23:54.700Z,98173.00
2022-12-23T06:26:28.149Z,98178.88
2022-12-23T06:29:02.342Z,98181.25
2022-12-23T06:31:35.449Z,98186.13
2022-12-23T06:34:12.312Z,98180.94
2022-12-23T06:36:46.228Z,98167.34
2022-12-23T06:39:18.045Z,98168.03
2022-12-23T06:41:53.299Z,98176.69
2022-12-23T06:44:34.509Z,98182.47
2022-12-23T06:47:10.482Z,98175.84
2022-12-23T06:49:41.666Z,98172.06
2022-12-23T06:52:17.614Z,98164.44
2022-12-23T06:54:49.295Z,98164.50
2022-12-23T06:57:25.917Z,98174.13
2022-12-23T06:59:59.405Z,98166.72
2022-12-23T07:02:34.747Z,98188.31
2022-12-23T07:05:16.172Z,98183.97
2022-12-23T07:07:58.505Z,98195.22
2022-12-23T07:10:30.545Z,98206.28
2022-12-23T07:13:00.755Z,98207.53
2022-12-23T07:15:33.777Z,98198.72
2022-12-23T07:18:36.548Z,98219.16
2022-12-23T07:21:24.832Z,98220.59
2022-12-23T07:24:14.609Z,98216.22
2022-12-23T07:26:50.427Z,98208.50
2022-12-23T07:29:23.946Z,98210.72
2022-12-23T07:32:38.059Z,98212.69
2022-12-23T07:35:09.332Z,98211.03
2022-12-23T07:37:40.290Z,98208.50
2022-12-23T07:40:12.240Z,98212.88
2022-12-23T07:51:45.406Z,98208.94
2022-12-23T07:54:25.048Z,98202.81
2022-12-23T07:57:06.142Z,98207.56
2022-12-23T07:59:41.493Z,98202.94
2022-12-23T08:02:17.693Z,98215.69
2022-12-23T08:04:50.530Z,98186.84
2022-12-23T08:07:27.420Z,98191.88
2022-12-23T08:10:02.134Z,98217.22
2022-12-23T08:12:37.212Z,98201.81
2022-12-23T08:15:11.210Z,98195.22
2022-12-23T08:20:29.990Z,98206.44
2022-12-23T08:23:00.719Z,98192.41
2022-12-23T08:25:34.504Z,98190.59
2022-12-23T08:28:14.033Z,98207.50
2022-12-23T08:30:48.895Z,98179.50
2022-12-23T08:33:28.299Z,98145.03
2022-12-23T08:36:03.269Z,98197.97
2022-12-23T08:38:35.087Z,98205.94
2022-12-23T08:41:14.015Z,98182.41
2022-12-23T08:43:45.236Z,98197.63
2022-12-23T08:46:17.576Z,98213.31
2022-12-23T08:48:52.201Z,98215.56
2022-12-23T08:51:27.978Z,98204.88
2022-12-23T08:54:07.890Z,98224.09
2022-12-23T08:56:43.517Z,98232.81
2022-12-23T08:59:20.120Z,98222.44
2022-12-23T09:02:04.160Z,98178.31
2022-12-23T09:04:38.648Z,98221.25
2022-12-23T09:07:10.709Z,98228.13
2022-12-23T09:09:42.857Z,98229.69
2022-12-23T09:12:20.419Z,98217.50
2022-12-23T09:14:53.698Z,98217.75
2022-12-23T09:17:28.319Z,98197.88
2022-12-23T09:20:03.462Z,98221.13
2022-12-23T09:22:42.347Z,98226.59
2022-12-23T09:25:18.605Z,98216.88
2022-12-23T09:27:53.484Z,98193.63
2022-12-23T09:30:32.134Z,98216.31
2022-12-23T09:33:04.639Z,98210.59
2022-12-23T09:35:36.134Z,98200.88
2022-12-23T09:38:08.877Z,98217.25
2022-12-23T09:40:40.257Z,98221.75
2022-12-23T09:43:19.041Z,98215.41
2022-12-23T09:45:57.288Z,98154.66
2022-12-23T09:48:29.432Z,98210.84
2022-12-23T09:50:57.741Z,98202.00
2022-12-23T09:53:34.233Z,98217.13
2022-12-23T09:56:09.353Z,98214.09
2022-12-23T09:58:45.166Z,98149.25
2022-12-23T10:01:20.217Z,98201.44
2022-12-23T10:04:20.418Z,98145.56
2022-12-23T10:06:59.356Z,98184.34
2022-12-23T10:09:31.626Z,98183.81
2022-12-23T10:12:01.491Z,98199.53
2022-12-23T10:14:33.221Z,98169.19
2022-12-23T10:17:09.194Z,98199.53
2022-12-23T10:19:42.877Z,98200.84
2022-12-23T10:22:16.291Z,98194.97
2022-12-23T10:24:46.911Z,98179.16
2022-12-23T10:27:24.271Z,98164.34
2022-12-23T10:29:53.782Z,98181.81
2022-12-23T10:32:30.029Z,98152.16
2022-12-23T10:35:03.895Z,98164.28
2022-12-23T10:37:35.152Z,98158.97
2022-12-23T10:40:16.326Z,98149.75
2022-12-23T10:42:52.519Z,98156.72
2022-12-23T10:45:37.038Z,98127.59
2022-12-23T10:48:16.381Z,98139.47
2022-12-23T10:51:02.646Z,98144.66
2022-12-23T10:53:37.006Z,98139.28
2022-12-23T10:56:06.773Z,98074.91
2022-12-23T10:58:38.182Z,98094.69
2022-12-23T11:01:16.083Z,98123.00
2022-12-23T11:03:56.795Z,98125.63
2022-12-23T11:06:33.102Z,98128.66
2022-12-23T11:09:06.166Z,98126.94
2022-12-23T11:11:57.606Z,98129.28
2022-12-23T11:14:38.259Z,98129.22
2022-12-23T11:17:21.075Z,98117.72
2022-12-23T11:19:49.486Z,98120.97
2022-12-23T11:22:25.396Z,98122.34
2022-12-23T11:24:53.858Z,98116.56
2022-12-23T11:27:21.835Z,98128.75
2022-12-23T11:29:52.869Z,98102.06
2022-12-23T11:32:25.844Z,98118.09
2022-12-23T11:34:54.266Z,98105.44
2022-12-23T11:37:33.772Z,98054.19
2022-12-23T11:40:01.959Z,98111.69
2022-12-23T11:42:31.723Z,98109.53
2022-12-23T11:45:05.046Z,98079.50
2022-12-23T11:47:41.074Z,98102.22
2022-12-23T11:50:30.441Z,98097.19
2022-12-23T11:53:10.804Z,98086.31
2022-12-23T11:55:45.674Z,98097.72
2022-12-23T11:58:20.311Z,98088.72
2022-12-23T12:00:57.868Z,98092.69
2022-12-23T12:03:32.073Z,98084.38
2022-12-23T12:06:02.851Z,98092.00
2022-12-23T12:08:34.303Z,98076.38
2022-12-23T12:11:07.448Z,98077.50
2022-12-23T12:13:46.238Z,98055.72
2022-12-23T12:16:29.007Z,98021.56
2022-12-23T12:19:03.922Z,98059.81
2022-12-23T12:21:34.869Z,98069.81
2022-12-23T12:24:18.402Z,98029.13
2022-12-23T12:26:51.461Z,98054.31
2022-12-23T12:29:26.521Z,98051.44
2022-12-23T12:32:03.300Z,98007.78
2022-12-23T12:34:43.691Z,98037.25
2022-12-23T12:37:23.708Z,98037.88
2022-12-23T12:39:55.367Z,98024.00
2022-12-23T12:42:30.350Z,98023.69
2022-12-23T12:45:12.031Z,98019.03
2022-12-23T12:47:53.849Z,97987.56
2022-12-23T12:50:28.682Z,98013.56
2022-12-23T12:53:01.551Z,98009.88
2022-12-23T12:55:33.745Z,98016.38
2022-12-23T12:58:03.723Z,98021.78
2022-12-23T13:00:46.480Z,97978.97
2022-12-23T13:03:31.812Z,98015.91
2022-12-23T13:06:14.073Z,98013.22
2022-12-23T13:09:02.870Z,98049.34
2022-12-23T13:11:40.519Z,98027.47
2022-12-23T13:14:22.904Z,98026.00
2022-12-23T13:17:01.875Z,98011.25
2022-12-23T13:19:38.521Z,98023.34
2022-12-23T13:22:11.123Z,98007.66
2022-12-23T13:24:53.161Z,97999.97
2022-12-23T13:27:28.330Z,98020.06
2022-12-23T13:30:06.783Z,98024.72
2022-12-23T13:32:58.157Z,98031.75
2022-12-23T13:35:49.928Z,98034.78
2022-12-23T13:38:35.993Z,98029.50
2022-12-23T13:41:09.544Z,98037.72
2022-12-23T13:43:45.145Z,98032.09
2022-12-23T13:46:23.381Z,98035.31
2022-12-23T13:48:59.375Z,98030.25
2022-12-23T13:51:36.282Z,98046.13
2022-12-23T13:54:13.496Z,98032.41
2022-12-23T13:56:48.138Z,98025.50
2022-12-23T13:59:18.313Z,98017.78
2022-12-23T14:01:49.232Z,98016.91
2022-12-23T14:04:38.215Z,98035.72
2022-12-23T14:07:19.430Z,98028.41
2022-12-23T14:09:53.279Z,98038.31
2022-12-23T14:12:23.026Z,98043.50
2022-12-23T14:15:06.828Z,98045.25
2022-12-23T14:17:44.882Z,98042.81
2022-12-23T14:20:28.160Z,98056.31
2022-12-23T14:23:06.817Z,98050.72
2022-12-23T14:25:51.556Z,98058.38
2022-12-23T14:28:35.917Z,98063.84
2022-12-23T14:31:06.190Z,98068.34
2022-12-23T14:33:38.167Z,98069.88
2022-12-23T14:36:22.821Z,98079.56
2022-12-23T14:39:23.865Z,98077.56
2022-12-23T14:41:57.558Z,98099.38
2022-12-23T14:44:55.900Z,98102.91
2022-12-23T14:47:32.939Z,98098.56
2022-12-23T14:50:34.080Z,98105.41
2022-12-23T14:53:03.033Z,98106.41
2022-12-23T14:56:09.710Z,98100.06
2022-12-23T14:59:11.243Z,98103.75
2022-12-23T15:01:41.205Z,98056.78
2022-12-23T15:04:23.480Z,98046.19
2022-12-23T15:06:58.643Z,98058.38
2022-12-23T15:09:29.197Z,98090.41
2022-12-23T15:12:01.076Z,98095.06
2022-12-23T15:14:48.304Z,98015.94
2022-12-23T15:17:18.862Z,98100.38
2022-12-23T15:19:48.325Z,98107.34
2022-12-23T15:22:22.586Z,98077.66
2022-12-23T15:24:51.999Z,98140.44
2022-12-23T15:27:30.455Z,98126.03
2022-12-23T15:30:00.171Z,98067.63
2022-12-23T15:32:29.693Z,98142.03
2022-12-23T15:35:03.305Z,98113.50
2022-12-23T15:37:32.727Z,98090.25
2022-12-23T15:40:12.574Z,98114.28
2022-12-23T15:42:48.450Z,98128.69
2022-12-23T15:45:31.938Z,98127.69
2022-12-23T15:48:03.655Z,98136.56
2022-12-23T15:50:32.429Z,98120.91
2022-12-23T15:53:07.608Z,98080.34
2022-12-23T15:55:37.482Z,98131.00
2022-12-23T15:58:06.085Z,98132.66
2022-12-23T16:00:40.300Z,98126.16
2022-12-23T16:03:23.949Z,98108.72
2022-12-23T16:05:52.286Z,98124.97
2022-12-23T16:08:29.917Z,98092.78
2022-12-23T16:11:06.904Z,98122.44
2022-12-23T16:13:34.979Z,98129.47
2022-12-23T16:16:32.109Z,98136.69
2022-12-23T16:19:00.142Z,98147.84
2022-12-23T16:21:39.085Z,98064.72
2022-12-23T16:24:09.770Z,98131.59
2022-12-23T16:26:42.400Z,98102.69
2022-12-23T16:29:12.339Z,98165.69
2022-12-23T16:31:49.833Z,98153.78
2022-12-23T16:34:20.228Z,98155.38
2022-12-23T16:36:48.231Z,98143.00
2022-12-23T16:39:21.962Z,98149.91
2022-12-23T16:41:50.537Z,98150.41
2022-12-23T16:44:19.471Z,98152.41
2022-12-23T16:46:53.547Z,98095.03
2022-12-23T16:49:29.529Z,98127.91
2022-12-23T16:52:01.233Z,98127.03
2022-12-23T16:54:29.375Z,98125.94
2022-12-23T16:56:58.423Z,98073.31
2022-12-23T16:59:26.405Z,98132.47
2022-12-23T17:02:01.386Z,98097.63
2022-12-23T17:04:31.571Z,98109.22
2022-12-23T17:06:59.598Z,98110.88
2022-12-23T17:09:27.580Z,98144.91
2022-12-23T17:11:56.394Z,98142.78
2022-12-23T17:14:26.689Z,98148.28
2022-12-23T17:16:56.182Z,98131.50
2022-12-23T17:19:28.912Z,98124.22
2022-12-23T17:22:00.974Z,98161.47
2022-12-23T17:24:32.404Z,98146.16
2022-12-23T17:27:00.434Z,98119.91
2022-12-23T17:29:28.605Z,98163.13
2022-12-23T17:31:58.147Z,98162.53
2022-12-23T17:34:26.155Z,98151.41
2022-12-23T17:36:54.573Z,98137.53
2022-12-23T17:42:49.720Z,98149.72
2022-12-23T17:45:26.882Z,98159.78
2022-12-23T17:47:56.350Z,98143.66
2022-12-23T17:50:25.321Z,98160.34
2022-12-23T17:52:53.512Z,98140.06
2022-12-23T17:55:24.459Z,98131.44
2022-12-23T17:57:53.334Z,98166.38
2022-12-23T18:00:32.084Z,98154.78
2022-12-23T18:03:05.747Z,98182.97
2022-12-23T18:05:36.856Z,98185.66
2022-12-23T18:08:06.141Z,98190.09
2022-12-23T18:10:38.084Z,98173.69
2022-12-23T18:13:08.375Z,98179.47
2022-12-23T18:15:38.730Z,98165.59
2022-12-23T18:18:19.014Z,98153.16
2022-12-23T18:20:53.582Z,98184.75
2022-12-23T18:23:25.800Z,98181.75
2022-12-23T18:25:54.013Z,98188.81
2022-12-23T18:28:21.960Z,98196.13
2022-12-23T18:30:50.366Z,98187.78
2022-12-23T18:33:19.852Z,98192.91
2022-12-23T18:35:49.231Z,98198.53
2022-12-23T18:38:18.000Z,98197.72
2022-12-23T18:40:46.073Z,98217.38
2022-12-23T18:43:19.268Z,98222.19
2022-12-23T18:45:52.468Z,98230.34
2022-12-23T18:48:23.037Z,98216.44
2022-12-23T18:50:51.016Z,98198.31
2022-12-23T18:53:24.782Z,98213.72
2022-12-23T18:55:53.884Z,98221.72
2022-12-23T18:58:22.447Z,98239.34
2022-12-23T19:00:52.719Z,98207.88
2022-12-23T19:03:25.520Z,98203.50
2022-12-23T19:05:57.015Z,98238.81
2022-12-23T19:08:27.841Z,98236.16
2022-12-23T19:10:57.123Z,98242.19
2022-12-23T19:13:25.345Z,98246.38
2022-12-23T19:15:53.567Z,98246.91
2022-12-23T19:18:35.029Z,98175.16
2022-12-23T19:21:06.119Z,98263.94
2022-12-23T19:23:36.033Z,98256.75
2022-12-23T19:26:06.254Z,98272.78
2022-12-23T19:28:35.084Z,98266.56
2022-12-23T19:31:08.866Z,98272.28
2022-12-23T19:33:39.008Z,98258.06
2022-12-23T19:36:11.095Z,98267.56
2022-12-23T19:38:39.791Z,98269.09
2022-12-23T19:41:08.342Z,98263.09
2022-12-23T19:43:36.544Z,98243.09
2022-12-23T19:46:07.342Z,98265.22
2022-12-23T19:48:35.614Z,98265.09
2022-12-23T19:51:07.236Z,98274.94
2022-12-23T19:53:35.915Z,98272.44
2022-12-23T19:56:05.808Z,98272.44
2022-12-23T19:58:36.122Z,98271.06
2022-12-23T20:01:09.495Z,98285.78
2022-12-23T20:03:38.392Z,98289.28
2022-12-23T20:06:09.478Z,98289.69
2022-12-23T20:08:37.468Z,98283.38
2022-12-23T20:11:10.415Z,98267.81
2022-12-23T20:13:38.976Z,98263.34
2022-12-23T20:16:08.754Z,98289.97
2022-12-23T20:18:37.215Z,98290.38
2022-12-23T20:21:07.042Z,98312.47
2022-12-23T20:23:36.734Z,98261.63
2022-12-23T20:26:05.666Z,98277.31
2022-12-23T20:28:34.512Z,98247.50
2022-12-23T20:31:09.022Z,98291.22
2022-12-23T20:33:38.169Z,98329.88
2022-12-23T20:36:07.932Z,98314.34
2022-12-23T20:38:38.798Z,98328.34
2022-12-23T20:41:07.158Z,98346.19
2022-12-23T20:43:35.455Z,98352.78
2022-12-23T20:46:03.796Z,98344.81
2022-12-23T20:48:34.285Z,98379.06
2022-12-23T20:51:06.025Z,98390.84
2022-12-23T20:53:34.635Z,98346.69
2022-12-23T20:56:06.042Z,98376.56
2022-12-23T20:58:51.810Z,98386.09
2022-12-23T21:01:19.824Z,98395.50
2022-12-23T21:03:47.772Z,98397.31
2022-12-23T21:06:15.863Z,98403.38
2022-12-23T21:08:43.933Z,98393.25
2022-12-23T21:11:13.306Z,98381.59
2022-12-23T21:13:41.442Z,98385.38
2022-12-23T21:16:12.499Z,98398.75
2022-12-23T21:18:45.430Z,98330.88
2022-12-23T21:21:13.880Z,98381.19
2022-12-23T21:23:42.972Z,98386.94
2022-12-23T21:26:15.838Z,98375.56
2022-12-23T21:28:46.266Z,98403.22
2022-12-23T21:31:15.360Z,98361.16
2022-12-23T21:33:44.950Z,98371.66
2022-12-23T21:36:19.803Z,98405.31
2022-12-23T21:38:49.950Z,98392.16
2022-12-23T21:41:21.744Z,98383.03
2022-12-23T21:43:50.747Z,98405.50
2022-12-23T21:46:20.636Z,98406.03
2022-12-23T21:48:49.608Z,98406.47
2022-12-23T21:51:20.148Z,98410.25
2022-12-23T21:53:51.184Z,98391.59
2022-12-23T21:56:24.325Z,98349.06
2022-12-23T21:58:56.321Z,98392.16
2022-12-23T22:01:24.914Z,98358.16
2022-12-23T22:03:53.638Z,98395.88
2022-12-23T22:06:23.555Z,98387.47
2022-12-23T22:08:53.271Z,98347.75
2022-12-23T22:11:27.253Z,98340.75
2022-12-23T22:13:57.293Z,98344.13
2022-12-23T22:16:27.259Z,98346.50
2022-12-23T22:18:56.620Z,98409.50
2022-12-23T22:21:26.798Z,98387.88
2022-12-23T22:23:56.050Z,98429.56
2022-12-23T22:26:27.081Z,98394.31
2022-12-23T22:28:56.120Z,98446.66
2022-12-23T22:31:33.011Z,98436.84
2022-12-23T22:34:01.818Z,98415.50
2022-12-23T22:36:32.011Z,98436.97
2022-12-23T22:39:03.447Z,98431.38
2022-12-23T22:41:39.211Z,98424.22
2022-12-23T22:44:08.400Z,98434.31
2022-12-23T22:46:39.199Z,98443.84
2022-12-23T22:49:08.615Z,98422.53
2022-12-23T22:51:40.131Z,98437.25
2022-12-23T22:54:10.884Z,98442.47
2022-12-23T22:56:40.332Z,98444.81
2022-12-23T22:59:08.361Z,98436.25
2022-12-23T23:01:39.070Z,98443.28
2022-12-23T23:04:07.995Z,98449.72
2022-12-23T23:06:40.173Z,98458.28
2022-12-23T23:09:09.986Z,98443.41
2022-12-23T23:11:43.163Z,98445.78
2022-12-23T23:14:11.450Z,98459.22
2022-12-23T23:16:39.872Z,98465.97
2022-12-23T23:19:09.214Z,98471.28
2022-12-23T23:21:37.999Z,98420.84
2022-12-23T23:24:06.587Z,98477.72
2022-12-23T23:26:34.623Z,98476.16
2022-12-23T23:29:04.391Z,98470.00
2022-12-23T23:31:41.909Z,98486.22
2022-12-23T23:34:10.582Z,98487.78
2022-12-23T23:36:38.628Z,98500.25
2022-12-23T23:39:06.731Z,98496.16
2022-12-23T23:41:35.946Z,98488.88
2022-12-23T23:44:05.517Z,98428.59
2022-12-23T23:46:34.321Z,98463.13
2022-12-23T23:49:03.400Z,98506.50
2022-12-23T23:51:31.328Z,98515.44
2022-12-23T23:53:59.276Z,98517.53
2022-12-23T23:56:33.870Z,98502.38
2022-12-23T23:59:08.001Z,98516.59
